Time;durP1;ratioP1;P1;durP2;ratioP2;P2;SDS_P1;SDS_P2;PMS_P1;PMS_P2;Temp;Humidity;BMP_temperature;BMP_pressure;BME280_temperature;BME280_humidity;BME280_pressure;Samples;Min_cycle;Max_cycle;Signal;HPM_P1;HPM_P2
2023/06/17 00:01:15;;;;;;;6.20;4.40;;;;;;;25.86;33.51;100928.88;5061605;28;20056;-60
2023/06/17 00:03:43;;;;;;;9.55;5.07;;;;;;;25.96;33.40;100927.19;5051938;28;20045;-61
2023/06/17 00:06:10;;;;;;;12.82;4.60;;;;;;;26.01;33.33;100932.41;5051263;28;20048;-61
2023/06/17 00:08:38;;;;;;;9.25;5.30;;;;;;;25.72;33.79;100931.75;5065848;28;20063;-60
2023/06/17 00:11:05;;;;;;;9.75;4.90;;;;;;;25.85;34.13;100932.09;5071895;28;20071;-60
2023/06/17 00:13:33;;;;;;;7.80;4.85;;;;;;;25.66;33.81;100930.59;5073417;28;20056;-60
2023/06/17 00:16:00;;;;;;;9.23;4.85;;;;;;;25.60;34.42;100923.75;5073462;28;20048;-61
2023/06/17 00:18:28;;;;;;;9.05;4.97;;;;;;;25.61;34.27;100919.75;5071643;28;20053;-62
2023/06/17 00:20:57;;;;;;;8.52;4.68;;;;;;;25.34;34.61;100918.59;5067165;28;20052;-61
2023/06/17 00:23:25;;;;;;;11.33;5.33;;;;;;;25.49;34.31;100920.16;5073287;28;20044;-61
2023/06/17 00:25:52;;;;;;;8.45;4.80;;;;;;;25.66;34.05;100919.31;5056164;28;20064;-61
2023/06/17 00:28:20;;;;;;;8.57;4.72;;;;;;;25.62;34.06;100924.16;5092557;28;20708;-60
2023/06/17 00:30:47;;;;;;;10.02;4.32;;;;;;;25.66;33.93;100915.69;5079077;28;20045;-60
2023/06/17 00:33:15;;;;;;;9.57;4.68;;;;;;;25.71;34.28;100913.22;5072991;28;20429;-60
2023/06/17 00:35:43;;;;;;;7.50;4.78;;;;;;;25.68;34.21;100916.88;5073293;28;20052;-60
2023/06/17 00:38:11;;;;;;;13.10;5.00;;;;;;;25.68;34.16;100913.25;5071797;28;20075;-61
2023/06/17 00:40:38;;;;;;;9.82;5.00;;;;;;;25.72;34.30;100912.00;5073005;28;20052;-60
2023/06/17 00:43:05;;;;;;;7.50;4.45;;;;;;;25.70;34.15;100896.72;5071376;28;20048;-61
2023/06/17 00:45:39;;;;;;;9.90;4.95;;;;;;;25.46;34.50;100901.25;5072918;28;20048;-61
2023/06/17 00:48:10;;;;;;;7.05;4.70;;;;;;;25.20;35.32;100899.72;5055907;28;20040;-61
2023/06/17 00:50:38;;;;;;;9.48;4.68;;;;;;;25.02;35.49;100901.00;5056553;28;20047;-60
2023/06/17 00:53:06;;;;;;;10.50;4.60;;;;;;;25.20;34.91;100887.63;5074432;28;20056;-60
2023/06/17 00:55:33;;;;;;;8.07;4.50;;;;;;;25.12;35.26;100884.03;5092989;28;20044;-60
2023/06/17 00:58:01;;;;;;;7.18;4.70;;;;;;;24.96;35.75;100880.06;5091543;28;20056;-61
2023/06/17 01:00:29;;;;;;;12.00;4.40;;;;;;;25.19;35.43;100884.00;5070572;28;20053;-60
2023/06/17 01:02:56;;;;;;;8.90;4.93;;;;;;;25.31;34.85;100880.75;5054439;28;20061;-60
2023/06/17 01:05:24;;;;;;;6.88;4.50;;;;;;;25.36;35.20;100876.69;5072450;28;20416;-61
2023/06/17 01:08:28;;;;;;;9.45;4.32;;;;;;;25.56;34.98;100875.00;5053970;28;20059;-61
2023/06/17 01:11:05;;;;;;;7.95;4.50;;;;;;;25.54;34.53;100871.81;5071788;28;20059;-60
2023/06/17 01:13:33;;;;;;;9.02;4.63;;;;;;;25.52;34.79;100868.59;5054881;28;20063;-60
2023/06/17 01:16:02;;;;;;;9.57;4.35;;;;;;;25.37;35.07;100873.50;5072406;28;20044;-60
2023/06/17 01:18:31;;;;;;;7.28;4.57;;;;;;;25.00;36.08;100867.56;5054780;28;20059;-60
2023/06/17 01:20:58;;;;;;;7.40;4.57;;;;;;;24.96;35.90;100869.59;5053017;28;20060;-60
2023/06/17 01:23:32;;;;;;;8.80;5.00;;;;;;;24.99;36.60;100865.97;5018611;28;20299;-61
2023/06/17 01:26:01;;;;;;;12.20;4.90;;;;;;;25.25;35.78;100873.91;5070531;28;20052;-61
2023/06/17 01:28:29;;;;;;;8.98;5.05;;;;;;;25.28;35.85;100863.84;5061348;28;20061;-61
2023/06/17 01:30:57;;;;;;;7.40;4.70;;;;;;;25.20;36.30;100865.06;5056126;28;20052;-61
2023/06/17 01:33:25;;;;;;;12.88;5.50;;;;;;;25.10;36.40;100874.38;5068022;28;20116;-61
2023/06/17 01:35:58;;;;;;;12.05;5.22;;;;;;;24.85;36.85;100863.19;5055653;28;20063;-60
2023/06/17 01:38:32;;;;;;;8.15;5.05;;;;;;;24.95;36.71;100858.75;5049204;28;20523;-60
2023/06/17 01:41:08;;;;;;;9.52;5.07;;;;;;;24.99;36.65;100865.97;5051372;28;20045;-60
2023/06/17 01:43:35;;;;;;;13.88;5.10;;;;;;;25.05;36.53;100855.88;5050286;28;20059;-61
2023/06/17 01:46:04;;;;;;;9.15;4.60;;;;;;;25.14;36.51;100867.50;5051346;28;20097;-60
2023/06/17 01:48:31;;;;;;;10.95;4.78;;;;;;;25.01;36.75;100857.91;5053975;28;20048;-61
2023/06/17 01:50:59;;;;;;;8.13;5.00;;;;;;;25.03;36.87;100857.50;5054168;28;20041;-61
2023/06/17 01:53:27;;;;;;;8.40;5.18;;;;;;;24.81;37.00;100855.97;5058253;28;20528;-61
2023/06/17 01:55:54;;;;;;;14.13;5.50;;;;;;;24.82;37.31;100849.91;5034640;28;20060;-61
2023/06/17 01:58:22;;;;;;;13.10;5.55;;;;;;;24.91;36.87;100852.28;5051548;28;20049;-60
2023/06/17 02:00:49;;;;;;;7.47;5.00;;;;;;;24.69;37.89;100864.81;5072294;28;20036;-60
2023/06/17 02:03:17;;;;;;;12.32;4.97;;;;;;;24.71;37.26;100851.94;5066460;28;20044;-61
2023/06/17 02:05:45;;;;;;;9.45;4.95;;;;;;;24.45;37.99;100852.34;5074532;28;20057;-61
2023/06/17 02:08:14;;;;;;;10.15;5.03;;;;;;;24.56;37.88;100855.97;5076300;28;20057;-62
2023/06/17 02:10:42;;;;;;;10.55;5.13;;;;;;;24.52;37.92;100853.16;5075519;28;20048;-60
2023/06/17 02:13:09;;;;;;;9.80;4.85;;;;;;;24.50;37.84;100847.13;5075472;28;20087;-61
2023/06/17 02:15:38;;;;;;;10.30;4.82;;;;;;;24.30;38.22;100853.59;5041255;28;20048;-60
2023/06/17 02:18:06;;;;;;;6.85;4.47;;;;;;;24.29;38.31;100855.59;5074254;28;20048;-60
2023/06/17 02:20:34;;;;;;;9.73;4.85;;;;;;;24.17;38.50;100856.00;5071447;28;20547;-61
2023/06/17 02:23:01;;;;;;;9.68;4.90;;;;;;;24.23;38.71;100857.19;5073369;28;20052;-59
2023/06/17 02:25:28;;;;;;;10.43;4.55;;;;;;;24.26;38.44;100855.59;5058975;28;20467;-61
2023/06/17 02:27:56;;;;;;;10.68;5.00;;;;;;;24.31;38.35;100847.53;5090192;28;20059;-60
2023/06/17 02:30:24;;;;;;;10.18;5.15;;;;;;;24.51;38.18;100842.31;5062590;28;20049;-60
2023/06/17 02:32:52;;;;;;;7.43;4.63;;;;;;;24.46;38.55;100831.44;5069900;28;20381;-61
2023/06/17 02:35:20;;;;;;;6.65;4.68;;;;;;;24.32;38.88;100837.09;5049761;28;20070;-61
2023/06/17 02:37:48;;;;;;;9.68;5.20;;;;;;;24.41;38.47;100824.19;5069089;28;20427;-61
2023/06/17 02:40:17;;;;;;;9.60;5.03;;;;;;;24.48;38.33;100827.00;5068712;28;20060;-60
2023/06/17 02:42:45;;;;;;;11.77;5.00;;;;;;;24.48;38.37;100831.81;5054125;28;20052;-61
2023/06/17 02:45:13;;;;;;;9.95;5.38;;;;;;;24.53;38.68;100831.41;5053730;28;20068;-61
2023/06/17 02:47:40;;;;;;;8.02;4.90;;;;;;;24.36;38.99;100818.16;5054984;28;20088;-61
2023/06/17 02:50:09;;;;;;;9.65;5.35;;;;;;;24.46;38.79;100817.38;5038629;28;20064;-62
2023/06/17 02:52:37;;;;;;;11.15;5.40;;;;;;;24.25;39.34;100818.16;5073519;28;20384;-61
2023/06/17 02:55:06;;;;;;;8.85;5.25;;;;;;;24.30;39.02;100814.94;5073455;28;20404;-61
2023/06/17 02:57:34;;;;;;;9.48;4.95;;;;;;;24.28;39.12;100805.31;5073843;28;20052;-61
2023/06/17 03:00:01;;;;;;;8.13;5.18;;;;;;;24.21;39.19;100808.94;5074600;28;20048;-60
2023/06/17 03:02:28;;;;;;;15.27;5.35;;;;;;;24.18;39.24;100811.75;5055087;28;20048;-61
2023/06/17 03:04:56;;;;;;;7.85;5.07;;;;;;;24.10;39.54;100801.69;5074499;28;20052;-59
2023/06/17 03:07:24;;;;;;;10.55;5.20;;;;;;;23.84;40.03;100811.31;5074622;28;20044;-61
2023/06/17 03:09:52;;;;;;;10.65;5.40;;;;;;;24.09;39.76;100808.53;5072224;28;20064;-61
2023/06/17 03:12:20;;;;;;;9.68;5.35;;;;;;;24.26;39.47;100808.53;5056490;28;20059;-60
2023/06/17 03:14:48;;;;;;;8.32;4.90;;;;;;;24.05;39.88;100802.09;5073176;28;20070;-60
2023/06/17 03:17:17;;;;;;;7.95;4.82;;;;;;;24.01;39.77;100802.09;5073394;28;20476;-61
2023/06/17 03:19:46;;;;;;;9.48;5.25;;;;;;;24.14;39.61;100808.13;5069051;28;20044;-60
2023/06/17 03:22:13;;;;;;;9.77;5.15;;;;;;;23.93;40.22;100806.09;5055151;28;20041;-62
2023/06/17 03:24:46;;;;;;;11.95;5.68;;;;;;;23.97;40.04;100808.91;5065198;28;20061;-61
2023/06/17 03:27:14;;;;;;;14.98;5.07;;;;;;;23.83;40.25;100804.09;5057709;28;20558;-61
2023/06/17 03:29:42;;;;;;;7.72;4.80;;;;;;;23.62;40.60;100811.69;5076632;28;20054;-61
2023/06/17 03:32:10;;;;;;;9.13;5.03;;;;;;;23.58;40.86;100806.06;5082124;28;20450;-61
2023/06/17 03:34:39;;;;;;;10.23;5.03;;;;;;;23.62;40.75;100803.25;5072903;28;20527;-60
2023/06/17 03:37:10;;;;;;;9.65;5.10;;;;;;;23.72;40.40;100803.28;5072858;28;20063;-60
2023/06/17 03:39:37;;;;;;;9.13;5.20;;;;;;;23.52;41.05;100806.84;5072310;28;20048;-63
2023/06/17 03:42:05;;;;;;;8.68;5.25;;;;;;;23.73;40.64;100804.09;5072306;28;20126;-60
2023/06/17 03:44:32;;;;;;;9.65;5.10;;;;;;;23.82;40.43;100808.09;5073902;28;20052;-61
2023/06/17 03:46:59;;;;;;;8.82;5.03;;;;;;;23.65;40.73;100811.69;5056420;28;20056;-60
2023/06/17 03:49:28;;;;;;;10.98;5.35;;;;;;;23.70;40.68;100805.69;5074358;28;20056;-61
2023/06/17 03:51:55;;;;;;;9.13;5.47;;;;;;;23.75;40.56;100805.28;5086660;28;20043;-60
2023/06/17 03:54:23;;;;;;;9.98;5.38;;;;;;;23.70;40.86;100800.03;5092341;28;20047;-60
2023/06/17 03:56:50;;;;;;;9.35;4.80;;;;;;;23.57;40.96;100804.47;5073658;28;20049;-60
2023/06/17 03:59:17;;;;;;;11.07;5.15;;;;;;;23.41;41.47;100804.03;5073730;28;20040;-62
2023/06/17 04:01:46;;;;;;;9.13;5.10;;;;;;;23.34;41.72;100804.78;5072623;28;20051;-60
2023/06/17 04:04:14;;;;;;;6.60;4.70;;;;;;;23.21;42.22;100802.72;5072545;28;20051;-60
2023/06/17 04:06:41;;;;;;;8.77;5.10;;;;;;;23.59;41.58;100806.88;5072025;28;20718;-61
2023/06/17 04:09:11;;;;;;;9.73;5.57;;;;;;;23.45;41.68;100804.03;5071569;28;20503;-61
2023/06/17 04:11:40;;;;;;;11.68;5.68;;;;;;;23.36;42.00;100804.41;5073403;28;20057;-61
2023/06/17 04:14:10;;;;;;;15.13;5.18;;;;;;;23.33;42.12;100802.38;5072252;28;20053;-59
2023/06/17 04:16:37;;;;;;;11.27;5.82;;;;;;;23.33;42.38;100805.19;5057885;28;20522;-61
2023/06/17 04:19:05;;;;;;;10.38;5.47;;;;;;;23.39;42.23;100810.03;5066754;28;20037;-61
2023/06/17 04:21:32;;;;;;;10.63;5.60;;;;;;;23.65;41.57;100802.44;5052606;28;20045;-61
2023/06/17 04:23:59;;;;;;;10.82;5.07;;;;;;;23.58;41.51;100802.44;5054524;28;20052;-60
2023/06/17 04:26:28;;;;;;;10.95;5.78;;;;;;;23.41;42.13;100804.81;5088018;28;20568;-60
2023/06/17 04:28:56;;;;;;;11.90;5.45;;;;;;;23.52;42.03;100810.44;5071971;28;20717;-61
2023/06/17 04:31:25;;;;;;;15.32;5.53;;;;;;;23.51;42.11;100806.03;5071826;28;20060;-61
2023/06/17 04:33:52;;;;;;;13.88;5.88;;;;;;;23.73;41.85;100815.34;5073069;28;20056;-62
2023/06/17 04:36:20;;;;;;;8.75;5.38;;;;;;;23.74;41.72;100803.69;5073262;28;20063;-60
2023/06/17 04:38:49;;;;;;;15.18;5.13;;;;;;;23.69;41.63;100812.50;5071693;28;20049;-61
2023/06/17 04:41:17;;;;;;;9.95;4.75;;;;;;;23.71;41.83;100803.69;5072242;28;20045;-61
2023/06/17 04:43:48;;;;;;;10.98;5.32;;;;;;;23.57;42.18;100812.91;5054714;28;20060;-60
2023/06/17 04:46:16;;;;;;;8.55;5.05;;;;;;;23.77;41.61;100810.50;5071900;28;20048;-59
2023/06/17 04:48:44;;;;;;;9.57;5.05;;;;;;;23.86;41.62;100802.47;5071454;28;20051;-61
2023/06/17 04:51:12;;;;;;;8.85;5.43;;;;;;;23.69;41.83;100803.25;5071188;28;20040;-60
2023/06/17 04:53:40;;;;;;;10.98;5.20;;;;;;;23.62;42.14;100801.25;5071089;28;20053;-61
2023/06/17 04:56:08;;;;;;;11.05;5.22;;;;;;;23.61;42.17;100791.19;5071598;28;20048;-60
2023/06/17 04:58:36;;;;;;;16.38;5.18;;;;;;;23.44;42.34;100794.78;5071396;28;20233;-60
2023/06/17 05:01:10;;;;;;;8.82;4.97;;;;;;;23.30;42.83;100791.94;5071025;28;20048;-60
2023/06/17 05:03:39;;;;;;;7.97;4.50;;;;;;;23.46;42.74;100795.19;5071103;28;20071;-60
2023/06/17 05:06:06;;;;;;;10.27;4.75;;;;;;;23.73;42.21;100790.78;5071922;28;20053;-61
2023/06/17 05:08:34;;;;;;;9.30;4.68;;;;;;;23.93;41.87;100783.59;5067564;28;20042;-60
2023/06/17 05:11:02;;;;;;;11.60;4.68;;;;;;;23.84;41.66;100788.00;5052704;28;20056;-61
2023/06/17 05:13:31;;;;;;;7.75;4.75;;;;;;;24.04;41.77;100794.88;5050006;28;20060;-60
2023/06/17 05:15:59;;;;;;;9.18;5.05;;;;;;;23.83;41.95;100784.41;5071090;28;20048;-61
2023/06/17 05:18:28;;;;;;;10.63;5.35;;;;;;;24.07;41.55;100789.25;5051167;28;20049;-60
2023/06/17 05:20:57;;;;;;;8.50;4.47;;;;;;;24.21;41.41;100789.25;5034730;28;20156;-60
2023/06/17 05:23:24;;;;;;;13.65;4.82;;;;;;;24.34;40.79;100786.78;5051879;28;20040;-60
2023/06/17 05:25:51;;;;;;;11.13;4.93;;;;;;;24.16;41.32;100791.66;5084959;28;20052;-59
2023/06/17 05:28:19;;;;;;;14.32;5.10;;;;;;;23.99;41.54;100798.06;5071587;28;20053;-61
2023/06/17 05:30:47;;;;;;;8.55;4.50;;;;;;;23.88;41.98;100794.44;5056311;28;20691;-60
2023/06/17 05:33:17;;;;;;;10.07;4.97;;;;;;;23.85;42.12;100796.03;5054670;28;20041;-60
2023/06/17 05:35:44;;;;;;;9.55;5.15;;;;;;;23.80;42.20;100787.22;5076467;28;20044;-60
2023/06/17 05:38:12;;;;;;;9.80;4.80;;;;;;;24.00;42.03;100792.06;5058376;28;20546;-61
2023/06/17 05:40:40;;;;;;;7.43;4.78;;;;;;;24.07;41.70;100794.88;5075326;28;20052;-62
2023/06/17 05:43:07;;;;;;;11.18;4.78;;;;;;;24.19;41.46;100785.22;5074621;28;20048;-60
2023/06/17 05:45:35;;;;;;;12.38;4.80;;;;;;;24.33;41.04;100790.81;5074785;28;20052;-61
2023/06/17 05:48:02;;;;;;;11.90;4.97;;;;;;;24.52;40.42;100793.19;5074994;28;20522;-61
2023/06/17 05:50:30;;;;;;;7.53;4.57;;;;;;;24.47;40.76;100788.78;5076247;28;20060;-60
2023/06/17 05:53:00;;;;;;;9.75;4.78;;;;;;;24.61;40.45;100785.13;5085038;28;20041;-60
2023/06/17 05:55:27;;;;;;;9.63;4.78;;;;;;;24.57;40.40;100787.16;5070366;28;20053;-60
2023/06/17 05:57:54;;;;;;;8.40;4.40;;;;;;;24.79;39.64;100785.09;5059925;28;20048;-60
2023/06/17 06:00:22;;;;;;;12.02;4.63;;;;;;;25.03;39.75;100790.66;5070189;28;20056;-61
2023/06/17 06:02:52;;;;;;;9.57;4.60;;;;;;;25.02;39.97;100793.88;5069454;28;20048;-60
2023/06/17 06:05:20;;;;;;;16.70;5.75;;;;;;;24.97;39.58;100792.28;5075096;28;20060;-61
2023/06/17 06:07:47;;;;;;;10.48;5.28;;;;;;;24.88;39.69;100797.53;5052990;28;20052;-61
2023/06/17 06:10:15;;;;;;;8.20;5.10;;;;;;;24.78;39.93;100797.56;5054275;28;20057;-61
2023/06/17 06:12:49;;;;;;;9.65;4.90;;;;;;;25.01;39.37;100804.34;5061095;28;20044;-61
2023/06/17 06:15:16;;;;;;;8.93;5.17;;;;;;;25.06;39.66;100803.09;5055507;28;20049;-62
2023/06/17 06:17:44;;;;;;;9.85;4.90;;;;;;;24.93;39.40;100807.59;5061672;28;20059;-61
2023/06/17 06:20:12;;;;;;;10.45;5.25;;;;;;;25.05;39.73;100807.97;5057166;28;20412;-61
2023/06/17 06:22:40;;;;;;;8.82;5.15;;;;;;;25.00;39.70;100813.22;5058221;28;20047;-61
2023/06/17 06:25:07;;;;;;;9.57;5.35;;;;;;;25.04;39.56;100813.97;5036949;28;20057;-60
2023/06/17 06:27:35;;;;;;;9.68;4.80;;;;;;;25.29;39.32;100804.22;5051053;28;20056;-60
2023/06/17 06:30:04;;;;;;;10.68;4.72;;;;;;;25.43;39.22;100801.34;5074429;28;20048;-61
2023/06/17 06:32:35;;;;;;;9.85;4.53;;;;;;;25.29;39.46;100801.41;5073790;28;20592;-60
2023/06/17 06:35:04;;;;;;;9.38;5.25;;;;;;;25.32;39.19;100805.41;5053325;28;20072;-61
2023/06/17 06:37:32;;;;;;;13.32;4.93;;;;;;;25.36;39.37;100803.38;5082160;28;20052;-62
2023/06/17 06:40:00;;;;;;;9.65;5.18;;;;;;;25.46;38.96;100808.16;5093804;28;20167;-61
2023/06/17 06:42:30;;;;;;;11.02;5.75;;;;;;;25.49;39.13;100816.63;5094326;28;20051;-61
2023/06/17 06:45:17;;;;;;;10.95;5.40;;;;;;;25.49;39.05;100813.78;5076590;28;20062;-61
2023/06/17 06:47:44;;;;;;;9.27;5.05;;;;;;;25.72;39.31;100812.47;5073756;28;20044;-60
2023/06/17 06:50:13;;;;;;;10.52;5.00;;;;;;;25.62;38.85;100814.13;5055655;28;20060;-61
2023/06/17 06:52:40;;;;;;;14.05;5.35;;;;;;;25.57;38.92;100820.19;5074436;28;20047;-61
2023/06/17 06:55:08;;;;;;;9.18;5.00;;;;;;;25.76;38.88;100816.84;5081620;28;20044;-60
2023/06/17 06:57:37;;;;;;;13.30;4.55;;;;;;;25.88;38.98;100819.19;5069292;28;20036;-61
2023/06/17 07:00:08;;;;;;;6.85;4.68;;;;;;;25.74;38.93;100821.28;5066648;28;20041;-61
2023/06/17 07:02:37;;;;;;;10.77;5.10;;;;;;;25.68;39.01;100822.97;5073530;28;20488;-61
2023/06/17 07:05:05;;;;;;;8.70;4.93;;;;;;;25.98;38.15;100825.97;5035712;28;20053;-60
2023/06/17 07:07:46;;;;;;;13.07;4.95;;;;;;;26.30;38.21;100830.16;5068474;28;20652;-61
2023/06/17 07:10:13;;;;;;;9.70;4.63;;;;;;;26.27;38.03;100828.19;5073861;28;20060;-60
2023/06/17 07:12:41;;;;;;;8.90;4.80;;;;;;;26.14;38.22;100826.25;5072174;28;20044;-60
2023/06/17 07:15:10;;;;;;;9.60;4.70;;;;;;;26.04;38.24;100818.69;5060814;28;20053;-61
2023/06/17 07:17:37;;;;;;;11.60;4.85;;;;;;;26.22;37.82;100820.13;5063527;28;20059;-61
2023/06/17 07:20:05;;;;;;;7.55;4.35;;;;;;;26.36;37.53;100819.22;5072737;28;20049;-60
2023/06/17 07:22:34;;;;;;;;;;;;;;;26.31;37.93;100820.44;5059534;28;20056;-59
2023/06/17 07:25:02;;;;;;;10.38;4.65;;;;;;;26.17;37.83;100822.63;5061694;28;19927;-62
2023/06/17 07:27:30;;;;;;;8.55;4.30;;;;;;;26.06;38.15;100822.72;5075474;28;20519;-61
2023/06/17 07:29:57;;;;;;;10.40;4.40;;;;;;;26.24;37.41;100825.38;5053386;28;20044;-61
2023/06/17 07:32:25;;;;;;;6.75;4.53;;;;;;;26.40;37.90;100834.09;5057197;28;20045;-60
2023/06/17 07:34:53;;;;;;;12.23;4.93;;;;;;;26.56;37.18;100825.84;5058389;28;20053;-65
2023/06/17 07:37:24;;;;;;;12.57;4.50;;;;;;;26.51;37.16;100824.31;5058278;28;20048;-62
2023/06/17 07:39:51;;;;;;;7.50;4.10;;;;;;;26.39;36.77;100824.84;5060287;28;20057;-60
2023/06/17 07:42:19;;;;;;;7.63;4.13;;;;;;;26.47;37.55;100834.03;5054752;28;20067;-60
2023/06/17 07:44:46;;;;;;;11.02;4.72;;;;;;;26.49;36.85;100835.22;5052552;28;20036;-61
2023/06/17 07:47:13;;;;;;;12.40;4.30;;;;;;;26.35;37.68;100831.72;5053785;28;20048;-63
2023/06/17 07:49:40;;;;;;;14.43;5.03;;;;;;;26.48;36.97;100832.81;5056965;28;20056;-60
2023/06/17 07:52:08;;;;;;;9.70;4.10;;;;;;;26.36;37.12;100836.94;5058057;28;20063;-60
2023/06/17 07:54:35;;;;;;;6.47;4.38;;;;;;;26.44;36.96;100834.88;5060628;28;20043;-60
2023/06/17 07:57:03;;;;;;;8.80;4.47;;;;;;;26.27;36.89;100833.00;5057869;28;20053;-60
2023/06/17 07:59:31;;;;;;;10.30;4.47;;;;;;;26.45;36.61;100834.44;5058179;28;20057;-61
2023/06/17 08:01:58;;;;;;;8.85;4.45;;;;;;;26.60;36.31;100838.75;5057584;28;20056;-62
2023/06/17 08:04:25;;;;;;;8.38;3.90;;;;;;;26.97;35.68;100831.50;5064535;28;20041;-64
2023/06/17 08:06:53;;;;;;;11.60;4.65;;;;;;;26.80;36.21;100830.47;5060658;28;20047;-61
2023/06/17 08:09:20;;;;;;;7.20;4.13;;;;;;;26.73;36.12;100827.72;5067914;28;20075;-60
2023/06/17 08:11:47;;;;;;;7.63;4.00;;;;;;;26.75;35.54;100821.66;5053554;28;20053;-60
2023/06/17 08:14:15;;;;;;;10.60;4.13;;;;;;;26.57;35.91;100824.66;5061917;28;20051;-60
2023/06/17 08:16:43;;;;;;;11.85;3.83;;;;;;;26.82;35.79;100825.19;5067956;28;20056;-61
2023/06/17 08:19:12;;;;;;;9.15;4.15;;;;;;;26.65;35.66;100821.34;5059211;28;20049;-61
2023/06/17 08:21:45;;;;;;;10.83;4.10;;;;;;;27.10;35.18;100818.41;5062691;28;20055;-60
2023/06/17 08:24:21;;;;;;;8.77;3.97;;;;;;;27.02;34.31;100814.88;5057621;28;20076;-60
2023/06/17 08:26:49;;;;;;;15.90;4.18;;;;;;;27.00;35.31;100816.53;5066247;28;20044;-60
2023/06/17 08:29:18;;;;;;;10.38;4.50;;;;;;;27.10;35.48;100809.91;5062691;28;20044;-61
2023/06/17 08:31:50;;;;;;;9.05;4.80;;;;;;;27.12;34.80;100808.28;5067350;28;20041;-62
2023/06/17 08:34:19;;;;;;;8.00;4.18;;;;;;;27.10;34.85;100804.25;5062096;28;20048;-63
2023/06/17 08:36:52;;;;;;;6.22;3.78;;;;;;;27.22;35.25;100800.88;5067825;28;20045;-62
2023/06/17 08:39:19;;;;;;;5.70;3.65;;;;;;;27.09;35.23;100800.66;5063310;28;20052;-61
2023/06/17 08:41:47;;;;;;;12.70;4.18;;;;;;;27.58;34.11;100797.16;5062247;28;20052;-61
2023/06/17 08:44:15;;;;;;;12.35;4.03;;;;;;;27.63;34.25;100796.66;5068140;28;20067;-60
2023/06/17 08:46:44;;;;;;;5.15;3.90;;;;;;;27.87;34.33;100796.72;5068179;28;20059;-61
2023/06/17 08:49:12;;;;;;;9.90;4.47;;;;;;;28.00;34.08;100798.53;5062580;28;20518;-61
2023/06/17 08:51:41;;;;;;;;;;;;;;;28.12;33.81;100794.31;5041878;28;20068;-62
2023/06/17 08:54:09;;;;;;;10.73;4.05;;;;;;;28.02;33.42;100784.75;5047714;28;19921;-61
2023/06/17 08:56:37;;;;;;;8.50;3.85;;;;;;;28.26;32.92;100780.69;5060103;28;20170;-61
2023/06/17 08:59:05;;;;;;;11.38;4.57;;;;;;;28.06;33.31;100782.66;5058876;28;20127;-62
2023/06/17 09:01:32;;;;;;;9.52;4.22;;;;;;;27.80;33.74;100789.13;5059647;28;20060;-63
2023/06/17 09:04:01;;;;;;;12.38;4.18;;;;;;;28.15;33.83;100788.59;5046552;28;20067;-62
2023/06/17 09:06:29;;;;;;;11.75;4.93;;;;;;;28.18;33.69;100786.91;5054083;28;20052;-63
2023/06/17 09:08:57;;;;;;;13.00;4.75;;;;;;;28.16;33.99;100778.84;5060042;28;20369;-63
2023/06/17 09:11:30;;;;;;;13.82;4.95;;;;;;;28.36;33.87;100788.22;5063109;28;20059;-63
2023/06/17 09:14:01;;;;;;;10.50;4.85;;;;;;;28.91;33.47;100787.56;5059985;28;20368;-62
2023/06/17 09:16:30;;;;;;;11.13;4.35;;;;;;;28.87;33.72;100783.19;5058706;28;20048;-64
2023/06/17 09:19:02;;;;;;;8.05;4.72;;;;;;;28.82;33.69;100784.50;5058687;28;20048;-62
2023/06/17 09:21:30;;;;;;;14.18;4.97;;;;;;;28.99;33.60;100785.38;5069665;28;20086;-62
2023/06/17 09:24:03;;;;;;;8.43;4.72;;;;;;;28.53;33.97;100784.25;5061116;28;20040;-63
2023/06/17 09:26:33;;;;;;;8.95;4.53;;;;;;;29.13;33.75;100790.78;5057689;28;20123;-63
2023/06/17 09:29:12;;;;;;;9.53;5.10;;;;;;;28.82;33.31;100783.72;5058470;28;20089;-63
2023/06/17 09:32:06;;;;;;;8.85;4.93;;;;;;;28.75;34.08;100781.78;5055637;28;20052;-62
2023/06/17 09:34:33;;;;;;;10.90;4.68;;;;;;;29.04;33.50;100784.84;5057091;28;20057;-63
2023/06/17 09:37:00;;;;;;;10.55;5.28;;;;;;;28.80;34.41;100793.44;5055900;28;20456;-63
2023/06/17 09:39:30;;;;;;;9.20;5.38;;;;;;;28.93;34.40;100785.09;5058066;28;20049;-65
2023/06/17 09:42:06;;;;;;;9.55;5.53;;;;;;;29.12;34.43;100780.66;5058102;28;20053;-62
2023/06/17 09:44:36;;;;;;;13.00;5.80;;;;;;;28.90;34.08;100774.63;5053172;28;20052;-63
2023/06/17 09:47:06;;;;;;;9.95;5.78;;;;;;;29.31;34.37;100777.78;5051979;28;20061;-61
2023/06/17 09:49:35;;;;;;;8.27;5.78;;;;;;;29.45;34.37;100779.50;5068564;28;20064;-63
2023/06/17 09:52:05;;;;;;;8.65;5.40;;;;;;;29.41;33.95;100773.13;5048314;28;20607;-61
2023/06/17 09:54:33;;;;;;;10.38;6.15;;;;;;;29.47;34.32;100769.31;5060047;28;20048;-61
2023/06/17 09:57:02;;;;;;;9.80;5.90;;;;;;;29.76;33.79;100772.31;5070975;28;20607;-62
2023/06/17 09:59:30;;;;;;;13.93;6.20;;;;;;;29.33;34.33;100769.66;5071418;28;20049;-61
2023/06/17 10:01:57;;;;;;;12.77;6.03;;;;;;;29.79;35.07;100762.91;5061683;28;20057;-63
2023/06/17 10:04:24;;;;;;;10.43;6.05;;;;;;;29.83;34.07;100760.78;5042234;28;20044;-62
2023/06/17 10:06:53;;;;;;;9.60;5.72;;;;;;;30.05;33.24;100769.56;5068073;28;20051;-63
2023/06/17 10:09:21;;;;;;;8.85;6.32;;;;;;;29.73;33.63;100764.66;5070229;28;20057;-62
2023/06/17 10:11:51;;;;;;;13.80;6.20;;;;;;;29.87;33.88;100763.53;5060372;28;20045;-61
2023/06/17 10:14:25;;;;;;;11.15;6.15;;;;;;;30.07;33.33;100759.34;5062943;28;20053;-62
2023/06/17 10:16:53;;;;;;;22.48;6.53;;;;;;;29.82;33.54;100751.47;5061900;28;20520;-60
2023/06/17 10:19:25;;;;;;;12.05;6.03;;;;;;;29.67;34.14;100750.19;5076210;28;20059;-63
2023/06/17 10:21:54;;;;;;;14.98;6.25;;;;;;;30.12;33.45;100740.97;5064197;28;20064;-63
2023/06/17 10:24:23;;;;;;;16.37;6.50;;;;;;;29.95;33.86;100731.66;5078951;28;20036;-62
2023/06/17 10:26:51;;;;;;;9.27;6.80;;;;;;;30.09;33.46;100733.34;5079198;28;20045;-62
2023/06/17 10:29:20;;;;;;;10.02;6.50;;;;;;;30.26;33.28;100734.94;5059368;28;20484;-62
2023/06/17 10:31:48;;;;;;;10.73;5.95;;;;;;;30.23;33.57;100735.81;5066094;28;20055;-62
2023/06/17 10:34:17;;;;;;;10.70;7.00;;;;;;;30.53;33.02;100741.88;5069022;28;20044;-61
2023/06/17 10:36:51;;;;;;;11.00;7.13;;;;;;;30.13;33.72;100737.66;5064142;28;20060;-62
2023/06/17 10:39:19;;;;;;;9.30;6.05;;;;;;;30.14;33.76;100735.63;5048693;28;20052;-62
2023/06/17 10:41:52;;;;;;;12.85;6.32;;;;;;;30.32;33.42;100742.47;5065722;28;20044;-69
2023/06/17 10:44:35;;;;;;;8.20;5.82;;;;;;;30.42;33.38;100741.41;5070100;28;20474;-62
2023/06/17 10:47:05;;;;;;;9.75;6.43;;;;;;;30.22;33.54;100729.31;5065689;28;20078;-63
2023/06/17 10:49:39;;;;;;;11.35;6.20;;;;;;;30.42;33.52;100727.19;5061889;28;20049;-63
2023/06/17 10:52:12;;;;;;;9.85;6.78;;;;;;;30.75;32.90;100720.13;5048742;28;20053;-62
2023/06/17 10:54:55;;;;;;;10.65;6.90;;;;;;;30.61;33.07;100717.69;5068389;28;20056;-63
2023/06/17 10:57:31;;;;;;;11.88;7.40;;;;;;;30.75;33.06;100720.13;5055328;28;20088;-64
2023/06/17 11:00:08;;;;;;;11.40;7.38;;;;;;;30.74;33.34;100721.34;5067832;28;20472;-62
2023/06/17 11:02:37;;;;;;;11.88;6.70;;;;;;;30.98;32.90;100726.81;5063746;28;20052;-63
2023/06/17 11:05:06;;;;;;;9.35;6.38;;;;;;;30.38;33.30;100714.28;5054654;28;20040;-63
2023/06/17 11:07:34;;;;;;;10.93;7.03;;;;;;;29.96;34.06;100716.22;5061530;28;20053;-63
2023/06/17 11:10:02;;;;;;;11.20;7.18;;;;;;;30.08;34.03;100715.47;5074528;28;20063;-62
2023/06/17 11:12:34;;;;;;;9.63;7.15;;;;;;;30.63;33.67;100718.00;5074014;28;20041;-63
2023/06/17 11:15:03;;;;;;;;;;;;;;;30.63;33.26;100718.00;5075148;28;20059;-63
2023/06/17 11:17:30;;;;;;;11.35;6.53;;;;;;;30.70;32.76;100706.44;5074840;28;19920;-63
2023/06/17 11:20:01;;;;;;;9.15;6.53;;;;;;;30.45;33.12;100706.38;5073306;28;20131;-63
2023/06/17 11:22:28;;;;;;;8.80;6.80;;;;;;;30.82;33.14;100696.38;5076364;28;20052;-63
2023/06/17 11:24:57;;;;;;;9.43;6.22;;;;;;;30.79;32.57;100698.06;5076122;28;20044;-63
2023/06/17 11:27:25;;;;;;;12.50;6.75;;;;;;;30.90;32.95;100690.03;5077664;28;20048;-63
2023/06/17 11:29:52;;;;;;;17.80;6.50;;;;;;;30.88;33.07;100684.00;5053155;28;20049;-63